sensor_id;sensor_type;location;lat;lon;timestamp;P1;durP1;ratioP1;P2;durP2;ratioP2
53263;SDS011;39153;52.680;6.172;2024-03-02T00:01:12;5.97;;;2.60;;
53263;SDS011;39153;52.680;6.172;2024-03-02T00:03:37;4.35;;;2.30;;
53263;SDS011;39153;52.680;6.172;2024-03-02T00:06:03;4.80;;;2.47;;
53263;SDS011;39153;52.680;6.172;2024-03-02T00:08:29;5.88;;;2.60;;
53263;SDS011;39153;52.680;6.172;2024-03-02T00:10:59;6.65;;;2.63;;
53263;SDS011;39153;52.680;6.172;2024-03-02T00:13:29;5.05;;;2.35;;
53263;SDS011;39153;52.680;6.172;2024-03-02T00:15:57;4.70;;;2.42;;
53263;SDS011;39153;52.680;6.172;2024-03-02T00:20:59;5.97;;;2.35;;
53263;SDS011;39153;52.680;6.172;2024-03-02T00:23:34;5.38;;;2.30;;
53263;SDS011;39153;52.680;6.172;2024-03-02T00:26:00;5.88;;;2.60;;
53263;SDS011;39153;52.680;6.172;2024-03-02T00:28:27;5.25;;;2.72;;
53263;SDS011;39153;52.680;6.172;2024-03-02T00:30:58;5.68;;;2.47;;
53263;SDS011;39153;52.680;6.172;2024-03-02T00:33:30;4.95;;;2.30;;
53263;SDS011;39153;52.680;6.172;2024-03-02T00:36:05;5.28;;;2.22;;
53263;SDS011;39153;52.680;6.172;2024-03-02T00:38:32;5.80;;;2.50;;
53263;SDS011;39153;52.680;6.172;2024-03-02T00:41:00;5.65;;;2.08;;
53263;SDS011;39153;52.680;6.172;2024-03-02T00:46:09;5.20;;;2.40;;
53263;SDS011;39153;52.680;6.172;2024-03-02T00:49:03;4.95;;;2.17;;
53263;SDS011;39153;52.680;6.172;2024-03-02T00:51:30;3.53;;;1.88;;
53263;SDS011;39153;52.680;6.172;2024-03-02T00:54:03;4.68;;;1.92;;
53263;SDS011;39153;52.680;6.172;2024-03-02T00:56:30;6.95;;;2.22;;
53263;SDS011;39153;52.680;6.172;2024-03-02T00:58:57;3.75;;;2.10;;
53263;SDS011;39153;52.680;6.172;2024-03-02T01:01:23;4.28;;;2.00;;
53263;SDS011;39153;52.680;6.172;2024-03-02T01:03:48;4.28;;;2.30;;
53263;SDS011;39153;52.680;6.172;2024-03-02T01:06:15;3.88;;;2.03;;
53263;SDS011;39153;52.680;6.172;2024-03-02T01:08:41;3.40;;;1.73;;
53263;SDS011;39153;52.680;6.172;2024-03-02T01:11:07;5.57;;;1.92;;
53263;SDS011;39153;52.680;6.172;2024-03-02T01:13:33;3.70;;;1.90;;
53263;SDS011;39153;52.680;6.172;2024-03-02T01:15:59;5.68;;;1.85;;
53263;SDS011;39153;52.680;6.172;2024-03-02T01:18:25;4.72;;;1.90;;
53263;SDS011;39153;52.680;6.172;2024-03-02T01:20:50;3.85;;;1.90;;
53263;SDS011;39153;52.680;6.172;2024-03-02T01:23:20;4.18;;;1.67;;
53263;SDS011;39153;52.680;6.172;2024-03-02T01:25:48;3.55;;;2.03;;
53263;SDS011;39153;52.680;6.172;2024-03-02T01:28:15;4.93;;;1.90;;
53263;SDS011;39153;52.680;6.172;2024-03-02T01:30:41;6.32;;;2.20;;
53263;SDS011;39153;52.680;6.172;2024-03-02T01:33:07;4.85;;;1.95;;
53263;SDS011;39153;52.680;6.172;2024-03-02T01:35:32;6.15;;;2.30;;
53263;SDS011;39153;52.680;6.172;2024-03-02T01:37:59;4.93;;;2.17;;
53263;SDS011;39153;52.680;6.172;2024-03-02T01:40:26;4.40;;;1.80;;
53263;SDS011;39153;52.680;6.172;2024-03-02T01:42:52;4.28;;;1.80;;
53263;SDS011;39153;52.680;6.172;2024-03-02T01:45:23;4.45;;;1.80;;
53263;SDS011;39153;52.680;6.172;2024-03-02T01:47:49;3.95;;;1.30;;
53263;SDS011;39153;52.680;6.172;2024-03-02T01:50:15;3.78;;;1.88;;
53263;SDS011;39153;52.680;6.172;2024-03-02T01:52:49;3.70;;;1.50;;
53263;SDS011;39153;52.680;6.172;2024-03-02T01:55:15;3.95;;;1.70;;
53263;SDS011;39153;52.680;6.172;2024-03-02T01:57:40;5.28;;;1.83;;
53263;SDS011;39153;52.680;6.172;2024-03-02T02:00:06;6.88;;;1.95;;
53263;SDS011;39153;52.680;6.172;2024-03-02T02:02:32;3.85;;;1.67;;
53263;SDS011;39153;52.680;6.172;2024-03-02T02:04:58;3.95;;;1.85;;
53263;SDS011;39153;52.680;6.172;2024-03-02T02:07:24;3.90;;;1.30;;
53263;SDS011;39153;52.680;6.172;2024-03-02T02:09:50;3.45;;;1.40;;
53263;SDS011;39153;52.680;6.172;2024-03-02T02:12:16;2.83;;;1.35;;
53263;SDS011;39153;52.680;6.172;2024-03-02T02:14:46;3.45;;;1.60;;
53263;SDS011;39153;52.680;6.172;2024-03-02T02:17:16;4.13;;;1.65;;
53263;SDS011;39153;52.680;6.172;2024-03-02T02:19:42;5.20;;;1.58;;
53263;SDS011;39153;52.680;6.172;2024-03-02T02:22:08;2.90;;;1.30;;
53263;SDS011;39153;52.680;6.172;2024-03-02T02:24:40;3.60;;;1.60;;
53263;SDS011;39153;52.680;6.172;2024-03-02T02:27:09;6.13;;;1.60;;
53263;SDS011;39153;52.680;6.172;2024-03-02T02:29:35;3.83;;;1.33;;
53263;SDS011;39153;52.680;6.172;2024-03-02T02:32:01;4.72;;;1.52;;
53263;SDS011;39153;52.680;6.172;2024-03-02T02:34:27;2.78;;;1.33;;
53263;SDS011;39153;52.680;6.172;2024-03-02T02:36:53;3.97;;;1.55;;
53263;SDS011;39153;52.680;6.172;2024-03-02T02:39:20;3.88;;;1.67;;
53263;SDS011;39153;52.680;6.172;2024-03-02T02:41:47;3.80;;;1.63;;
53263;SDS011;39153;52.680;6.172;2024-03-02T02:44:13;6.13;;;1.67;;
53263;SDS011;39153;52.680;6.172;2024-03-02T02:46:39;4.57;;;1.70;;
53263;SDS011;39153;52.680;6.172;2024-03-02T02:49:05;5.50;;;1.90;;
53263;SDS011;39153;52.680;6.172;2024-03-02T02:51:31;3.85;;;1.50;;
53263;SDS011;39153;52.680;6.172;2024-03-02T02:53:57;3.83;;;1.50;;
53263;SDS011;39153;52.680;6.172;2024-03-02T02:56:23;5.47;;;1.77;;
53263;SDS011;39153;52.680;6.172;2024-03-02T02:58:49;4.65;;;1.80;;
53263;SDS011;39153;52.680;6.172;2024-03-02T03:01:15;3.70;;;1.70;;
53263;SDS011;39153;52.680;6.172;2024-03-02T03:03:43;4.40;;;1.77;;
53263;SDS011;39153;52.680;6.172;2024-03-02T03:06:09;6.47;;;1.70;;
53263;SDS011;39153;52.680;6.172;2024-03-02T03:08:35;6.30;;;1.70;;
53263;SDS011;39153;52.680;6.172;2024-03-02T03:11:01;3.63;;;1.80;;
53263;SDS011;39153;52.680;6.172;2024-03-02T03:13:27;3.85;;;1.60;;
53263;SDS011;39153;52.680;6.172;2024-03-02T03:15:53;3.72;;;1.83;;
53263;SDS011;39153;52.680;6.172;2024-03-02T03:18:19;4.38;;;1.60;;
53263;SDS011;39153;52.680;6.172;2024-03-02T03:20:44;6.28;;;1.83;;
53263;SDS011;39153;52.680;6.172;2024-03-02T03:23:10;5.07;;;1.63;;
53263;SDS011;39153;52.680;6.172;2024-03-02T03:25:40;4.05;;;1.55;;
53263;SDS011;39153;52.680;6.172;2024-03-02T03:28:06;4.22;;;1.90;;
53263;SDS011;39153;52.680;6.172;2024-03-02T03:30:35;3.90;;;1.85;;
53263;SDS011;39153;52.680;6.172;2024-03-02T03:33:04;4.28;;;1.70;;
53263;SDS011;39153;52.680;6.172;2024-03-02T03:35:33;3.25;;;1.50;;
53263;SDS011;39153;52.680;6.172;2024-03-02T03:37:58;3.80;;;1.70;;
53263;SDS011;39153;52.680;6.172;2024-03-02T03:40:24;4.30;;;1.50;;
53263;SDS011;39153;52.680;6.172;2024-03-02T03:42:51;2.97;;;1.23;;
53263;SDS011;39153;52.680;6.172;2024-03-02T03:45:16;5.85;;;1.30;;
53263;SDS011;39153;52.680;6.172;2024-03-02T03:47:42;3.70;;;1.33;;
53263;SDS011;39153;52.680;6.172;2024-03-02T03:50:08;3.55;;;1.30;;
53263;SDS011;39153;52.680;6.172;2024-03-02T03:52:34;3.63;;;1.20;;
53263;SDS011;39153;52.680;6.172;2024-03-02T03:55:00;2.70;;;1.10;;
53263;SDS011;39153;52.680;6.172;2024-03-02T03:57:26;3.25;;;0.80;;
53263;SDS011;39153;52.680;6.172;2024-03-02T03:59:52;2.60;;;0.90;;
53263;SDS011;39153;52.680;6.172;2024-03-02T04:02:18;3.10;;;1.13;;
53263;SDS011;39153;52.680;6.172;2024-03-02T04:04:44;2.92;;;1.00;;
53263;SDS011;39153;52.680;6.172;2024-03-02T04:07:10;3.22;;;1.20;;
53263;SDS011;39153;52.680;6.172;2024-03-02T04:09:35;4.03;;;1.25;;
53263;SDS011;39153;52.680;6.172;2024-03-02T04:12:01;3.15;;;1.10;;
53263;SDS011;39153;52.680;6.172;2024-03-02T04:14:27;2.65;;;0.90;;
53263;SDS011;39153;52.680;6.172;2024-03-02T04:16:52;3.03;;;1.15;;
53263;SDS011;39153;52.680;6.172;2024-03-02T04:19:18;4.03;;;1.20;;
53263;SDS011;39153;52.680;6.172;2024-03-02T04:21:44;3.55;;;1.15;;
53263;SDS011;39153;52.680;6.172;2024-03-02T04:24:09;2.83;;;0.98;;
53263;SDS011;39153;52.680;6.172;2024-03-02T04:26:35;2.13;;;0.90;;
53263;SDS011;39153;52.680;6.172;2024-03-02T04:29:01;4.25;;;1.02;;
53263;SDS011;39153;52.680;6.172;2024-03-02T04:31:27;3.15;;;0.80;;
53263;SDS011;39153;52.680;6.172;2024-03-02T04:33:52;2.92;;;1.00;;
53263;SDS011;39153;52.680;6.172;2024-03-02T04:36:19;2.17;;;0.70;;
53263;SDS011;39153;52.680;6.172;2024-03-02T04:38:46;2.10;;;0.60;;
53263;SDS011;39153;52.680;6.172;2024-03-02T04:41:11;2.90;;;0.90;;
53263;SDS011;39153;52.680;6.172;2024-03-02T04:43:37;3.22;;;1.10;;
53263;SDS011;39153;52.680;6.172;2024-03-02T04:46:03;2.55;;;0.70;;
53263;SDS011;39153;52.680;6.172;2024-03-02T04:48:28;3.53;;;0.90;;
53263;SDS011;39153;52.680;6.172;2024-03-02T04:50:54;2.22;;;0.70;;
53263;SDS011;39153;52.680;6.172;2024-03-02T04:53:20;1.95;;;0.60;;
53263;SDS011;39153;52.680;6.172;2024-03-02T04:55:45;2.35;;;0.70;;
53263;SDS011;39153;52.680;6.172;2024-03-02T04:58:35;1.08;;;0.50;;
53263;SDS011;39153;52.680;6.172;2024-03-02T05:01:00;1.80;;;0.70;;
53263;SDS011;39153;52.680;6.172;2024-03-02T05:03:26;1.52;;;0.70;;
53263;SDS011;39153;52.680;6.172;2024-03-02T05:05:52;1.08;;;0.50;;
53263;SDS011;39153;52.680;6.172;2024-03-02T05:08:17;1.25;;;0.40;;
53263;SDS011;39153;52.680;6.172;2024-03-02T05:10:43;1.48;;;0.68;;
53263;SDS011;39153;52.680;6.172;2024-03-02T05:13:09;1.88;;;0.63;;
53263;SDS011;39153;52.680;6.172;2024-03-02T05:15:34;1.50;;;0.50;;
53263;SDS011;39153;52.680;6.172;2024-03-02T05:18:00;1.60;;;0.47;;
53263;SDS011;39153;52.680;6.172;2024-03-02T05:20:27;1.70;;;0.40;;
53263;SDS011;39153;52.680;6.172;2024-03-02T05:22:53;2.28;;;0.40;;
53263;SDS011;39153;52.680;6.172;2024-03-02T05:25:19;1.52;;;0.60;;
53263;SDS011;39153;52.680;6.172;2024-03-02T05:27:44;0.95;;;0.50;;
53263;SDS011;39153;52.680;6.172;2024-03-02T05:30:11;0.60;;;0.40;;
53263;SDS011;39153;52.680;6.172;2024-03-02T05:32:37;2.40;;;0.60;;
53263;SDS011;39153;52.680;6.172;2024-03-02T05:35:02;3.33;;;0.80;;
53263;SDS011;39153;52.680;6.172;2024-03-02T05:37:30;2.78;;;1.20;;
53263;SDS011;39153;52.680;6.172;2024-03-02T05:39:55;1.90;;;0.80;;
53263;SDS011;39153;52.680;6.172;2024-03-02T05:42:21;3.03;;;0.80;;
53263;SDS011;39153;52.680;6.172;2024-03-02T05:44:47;1.65;;;0.75;;
53263;SDS011;39153;52.680;6.172;2024-03-02T05:47:12;1.48;;;0.70;;
53263;SDS011;39153;52.680;6.172;2024-03-02T05:49:38;2.15;;;0.70;;
53263;SDS011;39153;52.680;6.172;2024-03-02T05:52:04;2.53;;;0.70;;
53263;SDS011;39153;52.680;6.172;2024-03-02T05:54:30;2.22;;;0.63;;
53263;SDS011;39153;52.680;6.172;2024-03-02T05:56:55;1.80;;;0.85;;
53263;SDS011;39153;52.680;6.172;2024-03-02T05:59:21;2.42;;;0.65;;
53263;SDS011;39153;52.680;6.172;2024-03-02T06:01:47;1.63;;;0.70;;
53263;SDS011;39153;52.680;6.172;2024-03-02T06:04:15;1.23;;;0.65;;
53263;SDS011;39153;52.680;6.172;2024-03-02T06:06:41;2.45;;;0.70;;
53263;SDS011;39153;52.680;6.172;2024-03-02T06:09:08;2.45;;;0.80;;
53263;SDS011;39153;52.680;6.172;2024-03-02T06:11:37;1.23;;;0.60;;
53263;SDS011;39153;52.680;6.172;2024-03-02T06:14:04;2.00;;;0.90;;
53263;SDS011;39153;52.680;6.172;2024-03-02T06:16:30;2.75;;;0.63;;
53263;SDS011;39153;52.680;6.172;2024-03-02T06:18:56;3.42;;;0.65;;
53263;SDS011;39153;52.680;6.172;2024-03-02T06:21:25;1.88;;;0.70;;
53263;SDS011;39153;52.680;6.172;2024-03-02T06:23:52;1.63;;;0.70;;
53263;SDS011;39153;52.680;6.172;2024-03-02T06:26:18;1.50;;;0.63;;
53263;SDS011;39153;52.680;6.172;2024-03-02T06:28:44;1.83;;;0.60;;
53263;SDS011;39153;52.680;6.172;2024-03-02T06:31:10;2.40;;;0.80;;
53263;SDS011;39153;52.680;6.172;2024-03-02T06:33:36;2.30;;;0.60;;
53263;SDS011;39153;52.680;6.172;2024-03-02T06:36:03;1.50;;;0.60;;
53263;SDS011;39153;52.680;6.172;2024-03-02T06:38:29;3.10;;;0.50;;
53263;SDS011;39153;52.680;6.172;2024-03-02T06:40:57;1.30;;;0.57;;
53263;SDS011;39153;52.680;6.172;2024-03-02T06:43:23;3.05;;;0.70;;
53263;SDS011;39153;52.680;6.172;2024-03-02T06:45:51;0.85;;;0.50;;
53263;SDS011;39153;52.680;6.172;2024-03-02T06:48:17;2.78;;;0.57;;
53263;SDS011;39153;52.680;6.172;2024-03-02T06:50:48;2.45;;;0.65;;
53263;SDS011;39153;52.680;6.172;2024-03-02T06:53:14;1.50;;;0.60;;
53263;SDS011;39153;52.680;6.172;2024-03-02T06:55:45;2.33;;;0.60;;
53263;SDS011;39153;52.680;6.172;2024-03-02T06:58:11;1.73;;;0.70;;
53263;SDS011;39153;52.680;6.172;2024-03-02T07:00:38;2.42;;;0.60;;
53263;SDS011;39153;52.680;6.172;2024-03-02T07:03:03;1.98;;;0.70;;
53263;SDS011;39153;52.680;6.172;2024-03-02T07:05:29;2.08;;;0.60;;
53263;SDS011;39153;52.680;6.172;2024-03-02T07:07:55;2.90;;;0.65;;
53263;SDS011;39153;52.680;6.172;2024-03-02T07:10:21;2.35;;;0.82;;
53263;SDS011;39153;52.680;6.172;2024-03-02T07:12:46;1.70;;;0.70;;
53263;SDS011;39153;52.680;6.172;2024-03-02T07:15:12;1.73;;;0.55;;
53263;SDS011;39153;52.680;6.172;2024-03-02T07:17:55;3.50;;;0.75;;
53263;SDS011;39153;52.680;6.172;2024-03-02T07:20:21;3.97;;;0.70;;
53263;SDS011;39153;52.680;6.172;2024-03-02T07:22:47;2.85;;;0.80;;
53263;SDS011;39153;52.680;6.172;2024-03-02T07:25:13;2.28;;;0.73;;
53263;SDS011;39153;52.680;6.172;2024-03-02T07:27:39;2.63;;;0.73;;
53263;SDS011;39153;52.680;6.172;2024-03-02T07:30:05;2.95;;;0.65;;
53263;SDS011;39153;52.680;6.172;2024-03-02T07:32:31;1.55;;;0.73;;
53263;SDS011;39153;52.680;6.172;2024-03-02T07:34:57;3.13;;;0.73;;
53263;SDS011;39153;52.680;6.172;2024-03-02T07:37:23;0.85;;;0.50;;
53263;SDS011;39153;52.680;6.172;2024-03-02T07:39:49;2.03;;;0.82;;
53263;SDS011;39153;52.680;6.172;2024-03-02T07:42:16;4.53;;;0.73;;
53263;SDS011;39153;52.680;6.172;2024-03-02T07:44:43;2.53;;;0.75;;
53263;SDS011;39153;52.680;6.172;2024-03-02T07:47:09;5.40;;;0.90;;
53263;SDS011;39153;52.680;6.172;2024-03-02T07:49:35;3.90;;;0.93;;
53263;SDS011;39153;52.680;6.172;2024-03-02T07:52:00;3.65;;;0.80;;
53263;SDS011;39153;52.680;6.172;2024-03-02T07:54:26;1.63;;;0.70;;
53263;SDS011;39153;52.680;6.172;2024-03-02T07:56:52;4.32;;;0.90;;
53263;SDS011;39153;52.680;6.172;2024-03-02T07:59:17;3.55;;;0.90;;
53263;SDS011;39153;52.680;6.172;2024-03-02T08:01:43;1.85;;;0.75;;
53263;SDS011;39153;52.680;6.172;2024-03-02T08:04:09;1.95;;;0.80;;
53263;SDS011;39153;52.680;6.172;2024-03-02T08:06:35;3.70;;;0.70;;
53263;SDS011;39153;52.680;6.172;2024-03-02T08:09:01;2.10;;;0.70;;
53263;SDS011;39153;52.680;6.172;2024-03-02T08:11:30;2.25;;;0.60;;
53263;SDS011;39153;52.680;6.172;2024-03-02T08:13:56;2.25;;;0.95;;
53263;SDS011;39153;52.680;6.172;2024-03-02T08:16:24;3.65;;;0.82;;
53263;SDS011;39153;52.680;6.172;2024-03-02T08:18:50;1.23;;;0.77;;
53263;SDS011;39153;52.680;6.172;2024-03-02T08:21:17;2.58;;;0.70;;
53263;SDS011;39153;52.680;6.172;2024-03-02T08:23:43;2.03;;;0.80;;
53263;SDS011;39153;52.680;6.172;2024-03-02T08:26:09;2.60;;;0.80;;
53263;SDS011;39153;52.680;6.172;2024-03-02T08:28:35;2.85;;;0.80;;
53263;SDS011;39153;52.680;6.172;2024-03-02T08:31:05;3.08;;;1.13;;
53263;SDS011;39153;52.680;6.172;2024-03-02T08:33:32;2.17;;;0.80;;
53263;SDS011;39153;52.680;6.172;2024-03-02T08:35:57;2.58;;;0.90;;
53263;SDS011;39153;52.680;6.172;2024-03-02T08:38:23;2.05;;;0.90;;
53263;SDS011;39153;52.680;6.172;2024-03-02T08:40:49;1.52;;;0.68;;
53263;SDS011;39153;52.680;6.172;2024-03-02T08:43:15;1.67;;;0.60;;
53263;SDS011;39153;52.680;6.172;2024-03-02T08:45:41;1.75;;;0.70;;
53263;SDS011;39153;52.680;6.172;2024-03-02T08:48:08;3.45;;;0.85;;
53263;SDS011;39153;52.680;6.172;2024-03-02T08:50:34;2.00;;;0.65;;
53263;SDS011;39153;52.680;6.172;2024-03-02T08:53:00;4.07;;;0.73;;
53263;SDS011;39153;52.680;6.172;2024-03-02T08:55:26;3.35;;;0.82;;
53263;SDS011;39153;52.680;6.172;2024-03-02T08:57:52;2.70;;;0.70;;
53263;SDS011;39153;52.680;6.172;2024-03-02T09:00:18;3.90;;;1.30;;
53263;SDS011;39153;52.680;6.172;2024-03-02T09:02:44;1.85;;;0.70;;
53263;SDS011;39153;52.680;6.172;2024-03-02T09:05:10;3.40;;;0.70;;
53263;SDS011;39153;52.680;6.172;2024-03-02T09:07:36;3.17;;;1.02;;
53263;SDS011;39153;52.680;6.172;2024-03-02T09:10:04;2.63;;;0.77;;
53263;SDS011;39153;52.680;6.172;2024-03-02T09:12:34;2.42;;;0.80;;
53263;SDS011;39153;52.680;6.172;2024-03-02T09:15:00;3.10;;;0.93;;
53263;SDS011;39153;52.680;6.172;2024-03-02T09:17:28;3.47;;;0.80;;
53263;SDS011;39153;52.680;6.172;2024-03-02T09:19:57;3.58;;;0.80;;
53263;SDS011;39153;52.680;6.172;2024-03-02T09:22:22;2.53;;;0.73;;
53263;SDS011;39153;52.680;6.172;2024-03-02T09:24:48;5.55;;;1.02;;
53263;SDS011;39153;52.680;6.172;2024-03-02T09:27:14;3.20;;;0.75;;
53263;SDS011;39153;52.680;6.172;2024-03-02T09:29:39;3.00;;;0.70;;
53263;SDS011;39153;52.680;6.172;2024-03-02T09:32:05;2.60;;;0.73;;
53263;SDS011;39153;52.680;6.172;2024-03-02T09:34:32;2.60;;;0.80;;
53263;SDS011;39153;52.680;6.172;2024-03-02T09:36:58;6.95;;;0.77;;
53263;SDS011;39153;52.680;6.172;2024-03-02T09:39:24;3.67;;;1.00;;
53263;SDS011;39153;52.680;6.172;2024-03-02T09:41:52;4.18;;;0.93;;
53263;SDS011;39153;52.680;6.172;2024-03-02T09:44:19;3.72;;;1.00;;
53263;SDS011;39153;52.680;6.172;2024-03-02T09:46:48;5.60;;;0.90;;
53263;SDS011;39153;52.680;6.172;2024-03-02T09:49:14;2.53;;;0.73;;
53263;SDS011;39153;52.680;6.172;2024-03-02T09:51:40;3.63;;;1.00;;
53263;SDS011;39153;52.680;6.172;2024-03-02T09:54:10;5.60;;;0.98;;
53263;SDS011;39153;52.680;6.172;2024-03-02T09:56:36;4.20;;;1.00;;
53263;SDS011;39153;52.680;6.172;2024-03-02T09:59:02;5.97;;;0.70;;
53263;SDS011;39153;52.680;6.172;2024-03-02T10:01:27;2.10;;;0.60;;
53263;SDS011;39153;52.680;6.172;2024-03-02T10:03:53;3.22;;;0.60;;
53263;SDS011;39153;52.680;6.172;2024-03-02T10:06:23;3.22;;;0.63;;
53263;SDS011;39153;52.680;6.172;2024-03-02T10:08:53;4.75;;;0.90;;
53263;SDS011;39153;52.680;6.172;2024-03-02T10:11:30;3.53;;;0.77;;
53263;SDS011;39153;52.680;6.172;2024-03-02T10:14:05;3.67;;;0.80;;
53263;SDS011;39153;52.680;6.172;2024-03-02T10:16:44;6.38;;;0.80;;
53263;SDS011;39153;52.680;6.172;2024-03-02T10:19:28;4.22;;;1.00;;
53263;SDS011;39153;52.680;6.172;2024-03-02T10:21:57;4.07;;;0.80;;
53263;SDS011;39153;52.680;6.172;2024-03-02T10:24:24;3.95;;;0.90;;
53263;SDS011;39153;52.680;6.172;2024-03-02T10:26:50;4.88;;;1.08;;
53263;SDS011;39153;52.680;6.172;2024-03-02T10:29:16;3.83;;;0.70;;
53263;SDS011;39153;52.680;6.172;2024-03-02T10:31:46;5.68;;;0.80;;
53263;SDS011;39153;52.680;6.172;2024-03-02T10:34:12;3.95;;;1.15;;
53263;SDS011;39153;52.680;6.172;2024-03-02T10:36:42;4.30;;;0.60;;
53263;SDS011;39153;52.680;6.172;2024-03-02T10:39:09;5.32;;;0.80;;
53263;SDS011;39153;52.680;6.172;2024-03-02T10:41:38;4.07;;;0.80;;
53263;SDS011;39153;52.680;6.172;2024-03-02T10:44:05;4.05;;;0.80;;
53263;SDS011;39153;52.680;6.172;2024-03-02T10:46:32;2.92;;;0.50;;
53263;SDS011;39153;52.680;6.172;2024-03-02T10:49:00;2.55;;;0.80;;
53263;SDS011;39153;52.680;6.172;2024-03-02T10:51:26;4.47;;;0.95;;
53263;SDS011;39153;52.680;6.172;2024-03-02T10:53:55;2.55;;;0.70;;
53263;SDS011;39153;52.680;6.172;2024-03-02T10:56:28;4.03;;;0.80;;
53263;SDS011;39153;52.680;6.172;2024-03-02T10:59:28;2.78;;;0.60;;
53263;SDS011;39153;52.680;6.172;2024-03-02T11:01:57;3.33;;;0.80;;
53263;SDS011;39153;52.680;6.172;2024-03-02T11:04:25;3.20;;;0.80;;
53263;SDS011;39153;52.680;6.172;2024-03-02T11:06:52;2.83;;;0.70;;
53263;SDS011;39153;52.680;6.172;2024-03-02T11:09:25;2.85;;;0.82;;
53263;SDS011;39153;52.680;6.172;2024-03-02T11:14:40;3.92;;;0.80;;
53263;SDS011;39153;52.680;6.172;2024-03-02T11:17:13;2.95;;;0.88;;
53263;SDS011;39153;52.680;6.172;2024-03-02T11:19:43;7.73;;;0.90;;
53263;SDS011;39153;52.680;6.172;2024-03-02T11:22:10;4.45;;;0.82;;
53263;SDS011;39153;52.680;6.172;2024-03-02T11:24:37;3.20;;;1.00;;
53263;SDS011;39153;52.680;6.172;2024-03-02T11:27:03;3.83;;;0.80;;
53263;SDS011;39153;52.680;6.172;2024-03-02T11:32:06;4.25;;;0.93;;
53263;SDS011;39153;52.680;6.172;2024-03-02T11:34:49;3.58;;;0.90;;
53263;SDS011;39153;52.680;6.172;2024-03-02T11:37:19;5.00;;;0.90;;
53263;SDS011;39153;52.680;6.172;2024-03-02T11:39:45;5.45;;;1.17;;
53263;SDS011;39153;52.680;6.172;2024-03-02T11:42:14;3.40;;;0.90;;
53263;SDS011;39153;52.680;6.172;2024-03-02T11:44:42;3.35;;;1.00;;
53263;SDS011;39153;52.680;6.172;2024-03-02T11:47:11;3.85;;;0.98;;
53263;SDS011;39153;52.680;6.172;2024-03-02T11:49:43;2.72;;;0.68;;
53263;SDS011;39153;52.680;6.172;2024-03-02T11:52:19;3.58;;;1.08;;
53263;SDS011;39153;52.680;6.172;2024-03-02T11:54:47;4.30;;;0.90;;
53263;SDS011;39153;52.680;6.172;2024-03-02T11:57:15;4.40;;;0.90;;
53263;SDS011;39153;52.680;6.172;2024-03-02T11:59:45;4.13;;;0.82;;
53263;SDS011;39153;52.680;6.172;2024-03-02T12:02:30;4.32;;;0.88;;
53263;SDS011;39153;52.680;6.172;2024-03-02T12:07:22;6.45;;;1.30;;
53263;SDS011;39153;52.680;6.172;2024-03-02T12:09:49;6.43;;;0.88;;
53263;SDS011;39153;52.680;6.172;2024-03-02T12:12:24;3.83;;;0.70;;
53263;SDS011;39153;52.680;6.172;2024-03-02T12:14:53;4.13;;;0.80;;
53263;SDS011;39153;52.680;6.172;2024-03-02T12:17:22;5.57;;;1.15;;
53263;SDS011;39153;52.680;6.172;2024-03-02T12:19:48;2.42;;;0.63;;
53263;SDS011;39153;52.680;6.172;2024-03-02T12:22:14;4.07;;;0.80;;
53263;SDS011;39153;52.680;6.172;2024-03-02T12:24:41;4.07;;;1.10;;
53263;SDS011;39153;52.680;6.172;2024-03-02T12:27:10;3.70;;;0.90;;
53263;SDS011;39153;52.680;6.172;2024-03-02T12:29:36;3.70;;;0.88;;
53263;SDS011;39153;52.680;6.172;2024-03-02T12:32:03;2.95;;;0.82;;
53263;SDS011;39153;52.680;6.172;2024-03-02T12:34:30;2.47;;;0.82;;
53263;SDS011;39153;52.680;6.172;2024-03-02T12:36:56;4.15;;;0.90;;
53263;SDS011;39153;52.680;6.172;2024-03-02T12:39:22;2.85;;;0.80;;
53263;SDS011;39153;52.680;6.172;2024-03-02T12:41:48;4.35;;;1.00;;
53263;SDS011;39153;52.680;6.172;2024-03-02T12:44:19;5.65;;;0.82;;
53263;SDS011;39153;52.680;6.172;2024-03-02T12:46:45;2.72;;;0.70;;
53263;SDS011;39153;52.680;6.172;2024-03-02T12:49:12;4.35;;;0.90;;
53263;SDS011;39153;52.680;6.172;2024-03-02T12:51:41;3.33;;;0.77;;
53263;SDS011;39153;52.680;6.172;2024-03-02T12:54:10;5.57;;;1.05;;
53263;SDS011;39153;52.680;6.172;2024-03-02T12:56:40;3.03;;;0.70;;
53263;SDS011;39153;52.680;6.172;2024-03-02T12:59:10;3.17;;;0.85;;
53263;SDS011;39153;52.680;6.172;2024-03-02T13:01:50;3.83;;;1.02;;
53263;SDS011;39153;52.680;6.172;2024-03-02T13:04:17;2.55;;;0.80;;
53263;SDS011;39153;52.680;6.172;2024-03-02T13:06:49;3.22;;;0.90;;
53263;SDS011;39153;52.680;6.172;2024-03-02T13:09:15;3.58;;;1.00;;
53263;SDS011;39153;52.680;6.172;2024-03-02T13:11:41;4.13;;;0.90;;
53263;SDS011;39153;52.680;6.172;2024-03-02T13:14:07;3.75;;;0.57;;
53263;SDS011;39153;52.680;6.172;2024-03-02T13:16:38;3.35;;;0.90;;
53263;SDS011;39153;52.680;6.172;2024-03-02T13:19:13;3.85;;;0.70;;
53263;SDS011;39153;52.680;6.172;2024-03-02T13:21:39;2.53;;;0.77;;
53263;SDS011;39153;52.680;6.172;2024-03-02T13:24:05;3.38;;;0.98;;
53263;SDS011;39153;52.680;6.172;2024-03-02T13:26:31;3.83;;;1.00;;
53263;SDS011;39153;52.680;6.172;2024-03-02T13:28:57;1.95;;;0.70;;
53263;SDS011;39153;52.680;6.172;2024-03-02T13:31:23;2.50;;;0.82;;
53263;SDS011;39153;52.680;6.172;2024-03-02T13:33:48;5.47;;;0.80;;
53263;SDS011;39153;52.680;6.172;2024-03-02T13:36:14;3.75;;;1.25;;
53263;SDS011;39153;52.680;6.172;2024-03-02T13:38:40;1.75;;;0.77;;
53263;SDS011;39153;52.680;6.172;2024-03-02T13:41:05;4.43;;;0.98;;
53263;SDS011;39153;52.680;6.172;2024-03-02T13:43:31;3.42;;;0.90;;
53263;SDS011;39153;52.680;6.172;2024-03-02T13:46:00;2.95;;;0.88;;
53263;SDS011;39153;52.680;6.172;2024-03-02T13:48:27;3.30;;;0.85;;
53263;SDS011;39153;52.680;6.172;2024-03-02T13:50:52;3.53;;;1.10;;
53263;SDS011;39153;52.680;6.172;2024-03-02T13:53:18;5.90;;;1.13;;
53263;SDS011;39153;52.680;6.172;2024-03-02T13:55:45;5.40;;;1.48;;
53263;SDS011;39153;52.680;6.172;2024-03-02T13:58:10;4.05;;;1.20;;
53263;SDS011;39153;52.680;6.172;2024-03-02T14:00:37;3.58;;;1.20;;
53263;SDS011;39153;52.680;6.172;2024-03-02T14:03:06;4.72;;;1.13;;
53263;SDS011;39153;52.680;6.172;2024-03-02T14:05:32;2.70;;;1.15;;
53263;SDS011;39153;52.680;6.172;2024-03-02T14:07:58;3.63;;;1.27;;
53263;SDS011;39153;52.680;6.172;2024-03-02T14:10:26;3.65;;;1.45;;
53263;SDS011;39153;52.680;6.172;2024-03-02T14:12:53;4.03;;;1.30;;
53263;SDS011;39153;52.680;6.172;2024-03-02T14:15:20;5.60;;;1.63;;
53263;SDS011;39153;52.680;6.172;2024-03-02T14:17:46;3.38;;;1.17;;
53263;SDS011;39153;52.680;6.172;2024-03-02T14:20:12;3.20;;;1.30;;
53263;SDS011;39153;52.680;6.172;2024-03-02T14:22:38;3.22;;;1.15;;
53263;SDS011;39153;52.680;6.172;2024-03-02T14:25:04;3.38;;;1.30;;
53263;SDS011;39153;52.680;6.172;2024-03-02T14:27:30;3.38;;;1.23;;
53263;SDS011;39153;52.680;6.172;2024-03-02T14:29:56;3.13;;;1.15;;
53263;SDS011;39153;52.680;6.172;2024-03-02T14:32:21;10.75;;;1.23;;
53263;SDS011;39153;52.680;6.172;2024-03-02T14:34:47;4.50;;;1.35;;
53263;SDS011;39153;52.680;6.172;2024-03-02T14:37:14;3.83;;;1.80;;
53263;SDS011;39153;52.680;6.172;2024-03-02T14:39:40;5.07;;;2.00;;
53263;SDS011;39153;52.680;6.172;2024-03-02T14:42:06;7.75;;;3.72;;
53263;SDS011;39153;52.680;6.172;2024-03-02T14:44:32;6.55;;;3.03;;
53263;SDS011;39153;52.680;6.172;2024-03-02T14:46:59;9.70;;;4.68;;
53263;SDS011;39153;52.680;6.172;2024-03-02T14:49:29;5.55;;;2.80;;
53263;SDS011;39153;52.680;6.172;2024-03-02T14:51:55;6.32;;;4.20;;
53263;SDS011;39153;52.680;6.172;2024-03-02T14:54:21;6.13;;;3.75;;
53263;SDS011;39153;52.680;6.172;2024-03-02T14:56:47;7.65;;;3.10;;
53263;SDS011;39153;52.680;6.172;2024-03-02T14:59:13;5.15;;;2.35;;
53263;SDS011;39153;52.680;6.172;2024-03-02T15:01:38;4.75;;;2.20;;